sensor_id;sensor_type;location;lat;lon;timestamp;pressure;altitude;pressure_sealevel;temperature;humidity
12360;BME280;6244;51.460;7.090;2024-02-21T00:03:57;101293.63;;;7.90;98.65
12360;BME280;6244;51.460;7.090;2024-02-21T00:08:54;101278.97;;;7.86;99.22
12360;BME280;6244;51.460;7.090;2024-02-21T00:13:50;101278.06;;;7.87;99.28
12360;BME280;6244;51.460;7.090;2024-02-21T01:00:43;101206.44;;;7.94;99.19
12360;BME280;6244;51.460;7.090;2024-02-21T01:05:39;101199.47;;;7.93;99.26
12360;BME280;6244;51.460;7.090;2024-02-21T01:10:36;101198.59;;;7.92;99.06
12360;BME280;6244;51.460;7.090;2024-02-21T01:15:32;101175.06;;;7.94;99.21
12360;BME280;6244;51.460;7.090;2024-02-21T01:20:30;101176.84;;;7.92;98.96
12360;BME280;6244;51.460;7.090;2024-02-21T01:25:27;101176.84;;;7.92;99.26
12360;BME280;6244;51.460;7.090;2024-02-21T01:30:24;101145.59;;;7.89;99.36
12360;BME280;6244;51.460;7.090;2024-02-21T01:35:20;101141.38;;;7.85;99.78
12360;BME280;6244;51.460;7.090;2024-02-21T01:40:18;101151.03;;;7.83;100.00
12360;BME280;6244;51.460;7.090;2024-02-21T01:45:15;101147.41;;;7.87;100.00
12360;BME280;6244;51.460;7.090;2024-02-21T01:50:14;101125.81;;;7.82;99.99
12360;BME280;6244;51.460;7.090;2024-02-21T02:12:48;101121.38;;;7.84;100.00
12360;BME280;6244;51.460;7.090;2024-02-21T02:17:44;101111.91;;;7.80;100.00
12360;BME280;6244;51.460;7.090;2024-02-21T02:22:42;101089.25;;;7.80;100.00
12360;BME280;6244;51.460;7.090;2024-02-21T02:27:44;101096.31;;;7.78;100.00
12360;BME280;6244;51.460;7.090;2024-02-21T02:32:44;101084.09;;;7.79;100.00
12360;BME280;6244;51.460;7.090;2024-02-21T02:37:47;101069.44;;;7.75;100.00
12360;BME280;6244;51.460;7.090;2024-02-21T02:42:45;101066.25;;;7.65;100.00
12360;BME280;6244;51.460;7.090;2024-02-21T02:47:42;101041.00;;;7.65;100.00
12360;BME280;6244;51.460;7.090;2024-02-21T02:52:40;101046.38;;;7.61;100.00
12360;BME280;6244;51.460;7.090;2024-02-21T02:57:37;101047.28;;;7.60;100.00
12360;BME280;6244;51.460;7.090;2024-02-21T03:02:35;101039.69;;;7.52;100.00
12360;BME280;6244;51.460;7.090;2024-02-21T03:07:32;101054.25;;;7.59;100.00
12360;BME280;6244;51.460;7.090;2024-02-21T03:12:28;101043.03;;;7.57;100.00
12360;BME280;6244;51.460;7.090;2024-02-21T03:17:25;101039.34;;;7.63;100.00
12360;BME280;6244;51.460;7.090;2024-02-21T03:22:23;101029.50;;;7.71;100.00
12360;BME280;6244;51.460;7.090;2024-02-21T03:33:08;101000.34;;;7.58;100.00
12360;BME280;6244;51.460;7.090;2024-02-21T03:38:06;101013.06;;;7.68;100.00
12360;BME280;6244;51.460;7.090;2024-02-21T03:43:03;100999.19;;;7.65;100.00
12360;BME280;6244;51.460;7.090;2024-02-21T03:48:00;101003.63;;;7.63;100.00
12360;BME280;6244;51.460;7.090;2024-02-21T03:52:56;101014.94;;;7.64;100.00
12360;BME280;6244;51.460;7.090;2024-02-21T03:57:54;101023.63;;;7.64;100.00
12360;BME280;6244;51.460;7.090;2024-02-21T04:02:52;101023.50;;;7.68;100.00
12360;BME280;6244;51.460;7.090;2024-02-21T04:07:53;101041.78;;;7.69;100.00
12360;BME280;6244;51.460;7.090;2024-02-21T04:12:50;101031.25;;;7.71;100.00
12360;BME280;6244;51.460;7.090;2024-02-21T04:17:48;101030.31;;;7.73;100.00
12360;BME280;6244;51.460;7.090;2024-02-21T04:22:44;101025.94;;;7.74;100.00
12360;BME280;6244;51.460;7.090;2024-02-21T04:27:45;101020.66;;;7.75;100.00
12360;BME280;6244;51.460;7.090;2024-02-21T04:32:57;101016.22;;;7.77;99.61
12360;BME280;6244;51.460;7.090;2024-02-21T04:37:53;101021.44;;;7.77;98.15
12360;BME280;6244;51.460;7.090;2024-02-21T04:42:50;101019.75;;;7.76;98.13
12360;BME280;6244;51.460;7.090;2024-02-21T04:47:46;101023.09;;;7.80;97.35
12360;BME280;6244;51.460;7.090;2024-02-21T04:52:44;101006.63;;;7.78;97.70
12360;BME280;6244;51.460;7.090;2024-02-21T04:57:41;100992.72;;;7.77;97.54
12360;BME280;6244;51.460;7.090;2024-02-21T05:02:37;100999.59;;;7.80;97.01
12360;BME280;6244;51.460;7.090;2024-02-21T05:07:34;100985.59;;;7.82;96.60
12360;BME280;6244;51.460;7.090;2024-02-21T05:12:32;101003.06;;;7.80;96.66
12360;BME280;6244;51.460;7.090;2024-02-21T05:17:29;100987.38;;;7.80;96.25
12360;BME280;6244;51.460;7.090;2024-02-21T05:22:25;100969.09;;;7.80;95.80
12360;BME280;6244;51.460;7.090;2024-02-21T05:27:22;100977.03;;;7.77;95.76
12360;BME280;6244;51.460;7.090;2024-02-21T05:32:19;100983.91;;;7.80;96.07
12360;BME280;6244;51.460;7.090;2024-02-21T05:37:16;100969.16;;;7.79;95.72
12360;BME280;6244;51.460;7.090;2024-02-21T05:42:12;100960.56;;;7.75;95.66
12360;BME280;6244;51.460;7.090;2024-02-21T05:47:09;100949.31;;;7.73;95.54
12360;BME280;6244;51.460;7.090;2024-02-21T05:52:08;100959.59;;;7.78;95.25
12360;BME280;6244;51.460;7.090;2024-02-21T05:57:05;100948.41;;;7.74;94.71
12360;BME280;6244;51.460;7.090;2024-02-21T06:02:02;100947.56;;;7.74;94.82
12360;BME280;6244;51.460;7.090;2024-02-21T06:06:59;100934.44;;;7.75;94.38
12360;BME280;6244;51.460;7.090;2024-02-21T06:11:57;100934.34;;;7.78;94.24
12360;BME280;6244;51.460;7.090;2024-02-21T06:16:54;100922.19;;;7.77;94.00
12360;BME280;6244;51.460;7.090;2024-02-21T06:21:50;100917.81;;;7.78;93.65
12360;BME280;6244;51.460;7.090;2024-02-21T06:26:47;100910.03;;;7.76;93.91
12360;BME280;6244;51.460;7.090;2024-02-21T06:31:45;100908.31;;;7.75;93.57
12360;BME280;6244;51.460;7.090;2024-02-21T06:36:41;100901.34;;;7.76;93.78
12360;BME280;6244;51.460;7.090;2024-02-21T06:41:38;100892.59;;;7.77;93.98
12360;BME280;6244;51.460;7.090;2024-02-21T06:46:35;100877.72;;;7.79;93.26
12360;BME280;6244;51.460;7.090;2024-02-21T06:51:33;100876.97;;;7.75;93.28
12360;BME280;6244;51.460;7.090;2024-02-21T06:56:32;100889.03;;;7.79;93.09
12360;BME280;6244;51.460;7.090;2024-02-21T07:01:28;100879.41;;;7.81;92.90
12360;BME280;6244;51.460;7.090;2024-02-21T07:06:25;100891.44;;;7.85;91.77
12360;BME280;6244;51.460;7.090;2024-02-21T07:11:23;100891.44;;;7.85;91.91
12360;BME280;6244;51.460;7.090;2024-02-21T07:16:20;100880.84;;;7.88;91.24
12360;BME280;6244;51.460;7.090;2024-02-21T07:21:16;100885.16;;;7.89;91.44
12360;BME280;6244;51.460;7.090;2024-02-21T07:26:12;100878.97;;;7.92;90.88
12360;BME280;6244;51.460;7.090;2024-02-21T07:31:10;100882.44;;;7.92;91.00
12360;BME280;6244;51.460;7.090;2024-02-21T07:36:07;100870.13;;;7.96;91.27
12360;BME280;6244;51.460;7.090;2024-02-21T07:41:03;100859.56;;;7.99;90.80
12360;BME280;6244;51.460;7.090;2024-02-21T07:46:00;100857.75;;;8.01;90.76
12360;BME280;6244;51.460;7.090;2024-02-21T07:50:58;100859.56;;;7.99;90.44
12360;BME280;6244;51.460;7.090;2024-02-21T07:55:54;100845.47;;;8.03;90.08
12360;BME280;6244;51.460;7.090;2024-02-21T08:00:51;100845.59;;;8.00;89.67
12360;BME280;6244;51.460;7.090;2024-02-21T08:05:47;100834.34;;;7.98;89.96
12360;BME280;6244;51.460;7.090;2024-02-21T08:10:45;100824.63;;;8.02;90.44
12360;BME280;6244;51.460;7.090;2024-02-21T08:15:42;100825.31;;;8.07;90.06
12360;BME280;6244;51.460;7.090;2024-02-21T08:20:38;100809.63;;;8.07;89.97
12360;BME280;6244;51.460;7.090;2024-02-21T08:25:35;100802.59;;;8.09;89.53
12360;BME280;6244;51.460;7.090;2024-02-21T08:30:33;100800.56;;;8.15;89.00
12360;BME280;6244;51.460;7.090;2024-02-21T08:35:29;100786.91;;;8.09;90.04
12360;BME280;6244;51.460;7.090;2024-02-21T08:40:26;100786.50;;;8.19;89.69
12360;BME280;6244;51.460;7.090;2024-02-21T08:45:22;100778.66;;;8.19;89.64
12360;BME280;6244;51.460;7.090;2024-02-21T08:50:20;100786.84;;;8.10;90.62
12360;BME280;6244;51.460;7.090;2024-02-21T08:55:16;100796.50;;;8.08;91.05
12360;BME280;6244;51.460;7.090;2024-02-21T09:00:14;100774.13;;;8.01;91.03
12360;BME280;6244;51.460;7.090;2024-02-21T09:05:11;100759.34;;;8.00;90.09
12360;BME280;6244;51.460;7.090;2024-02-21T09:10:09;100764.47;;;8.03;90.07
12360;BME280;6244;51.460;7.090;2024-02-21T09:15:06;100757.88;;;7.93;90.64
12360;BME280;6244;51.460;7.090;2024-02-21T09:20:04;100754.84;;;7.82;91.18
12360;BME280;6244;51.460;7.090;2024-02-21T09:25:01;100753.94;;;7.83;91.35
12360;BME280;6244;51.460;7.090;2024-02-21T09:30:00;100752.13;;;7.85;90.76
12360;BME280;6244;51.460;7.090;2024-02-21T09:34:56;100738.00;;;7.89;89.94
12360;BME280;6244;51.460;7.090;2024-02-21T09:39:53;100732.66;;;7.92;89.83
12360;BME280;6244;51.460;7.090;2024-02-21T09:44:50;100714.63;;;7.86;89.67
12360;BME280;6244;51.460;7.090;2024-02-21T09:49:48;100718.22;;;7.83;90.33
12360;BME280;6244;51.460;7.090;2024-02-21T09:54:45;100724.28;;;7.84;90.76
12360;BME280;6244;51.460;7.090;2024-02-21T09:59:42;100727.34;;;7.95;90.60
12360;BME280;6244;51.460;7.090;2024-02-21T10:04:39;100731.28;;;8.05;89.33
12360;BME280;6244;51.460;7.090;2024-02-21T10:09:37;100735.56;;;8.08;89.54
12360;BME280;6244;51.460;7.090;2024-02-21T10:14:35;100720.41;;;8.16;89.85
12360;BME280;6244;51.460;7.090;2024-02-21T10:19:32;100719.06;;;8.28;90.06
12360;BME280;6244;51.460;7.090;2024-02-21T10:24:28;100718.34;;;8.46;88.77
12360;BME280;6244;51.460;7.090;2024-02-21T10:29:26;100704.50;;;8.44;86.97
12360;BME280;6244;51.460;7.090;2024-02-21T10:34:23;100698.59;;;8.39;86.30
12360;BME280;6244;51.460;7.090;2024-02-21T10:39:19;100693.13;;;8.45;85.00
12360;BME280;6244;51.460;7.090;2024-02-21T10:44:17;100676.44;;;8.47;83.08
12360;BME280;6244;51.460;7.090;2024-02-21T10:49:22;100670.28;;;8.48;82.82
12360;BME280;6244;51.460;7.090;2024-02-21T10:54:30;100662.25;;;8.53;82.29
12360;BME280;6244;51.460;7.090;2024-02-21T10:59:33;100645.94;;;8.67;83.21
12360;BME280;6244;51.460;7.090;2024-02-21T11:04:33;100636.63;;;8.81;80.67
12360;BME280;6244;51.460;7.090;2024-02-21T11:09:32;100602.09;;;8.73;81.10
12360;BME280;6244;51.460;7.090;2024-02-21T11:14:29;100578.63;;;8.91;81.15
12360;BME280;6244;51.460;7.090;2024-02-21T11:19:29;100559.31;;;9.12;79.53
12360;BME280;6244;51.460;7.090;2024-02-21T11:24:29;100547.91;;;9.13;78.07
12360;BME280;6244;51.460;7.090;2024-02-21T11:29:26;100528.59;;;9.16;77.60
12360;BME280;6244;51.460;7.090;2024-02-21T11:34:24;100510.06;;;9.20;77.63
12360;BME280;6244;51.460;7.090;2024-02-21T11:39:21;100488.16;;;9.40;76.75
12360;BME280;6244;51.460;7.090;2024-02-21T11:44:19;100476.47;;;9.47;76.54
12360;BME280;6244;51.460;7.090;2024-02-21T11:49:16;100468.44;;;9.50;75.77
12360;BME280;6244;51.460;7.090;2024-02-21T11:54:12;100446.72;;;9.48;75.28
12360;BME280;6244;51.460;7.090;2024-02-21T11:59:11;100425.53;;;9.53;74.49
12360;BME280;6244;51.460;7.090;2024-02-21T12:04:10;100411.16;;;9.44;73.45
12360;BME280;6244;51.460;7.090;2024-02-21T12:09:07;100401.97;;;9.53;72.81
12360;BME280;6244;51.460;7.090;2024-02-21T12:14:04;100375.34;;;9.78;72.19
12360;BME280;6244;51.460;7.090;2024-02-21T12:19:00;100364.44;;;9.69;71.88
12360;BME280;6244;51.460;7.090;2024-02-21T12:24:00;100353.78;;;9.73;71.99
12360;BME280;6244;51.460;7.090;2024-02-21T12:28:59;100336.41;;;9.87;71.32
12360;BME280;6244;51.460;7.090;2024-02-21T12:33:56;100306.84;;;10.01;70.21
12360;BME280;6244;51.460;7.090;2024-02-21T12:38:53;100310.69;;;9.78;69.99
12360;BME280;6244;51.460;7.090;2024-02-21T12:43:51;100309.44;;;9.85;69.97
12360;BME280;6244;51.460;7.090;2024-02-21T12:48:47;100311.16;;;10.02;68.36
12360;BME280;6244;51.460;7.090;2024-02-21T12:53:44;100301.69;;;10.15;68.58
12360;BME280;6244;51.460;7.090;2024-02-21T12:58:40;100280.91;;;10.28;67.46
12360;BME280;6244;51.460;7.090;2024-02-21T13:03:38;100275.81;;;10.41;66.31
12360;BME280;6244;51.460;7.090;2024-02-21T13:08:35;100265.22;;;10.58;67.38
12360;BME280;6244;51.460;7.090;2024-02-21T13:13:31;100254.34;;;10.80;65.05
12360;BME280;6244;51.460;7.090;2024-02-21T13:18:28;100242.69;;;10.70;64.62
12360;BME280;6244;51.460;7.090;2024-02-21T13:23:26;100209.72;;;10.50;64.58
12360;BME280;6244;51.460;7.090;2024-02-21T13:28:22;100216.22;;;10.58;65.62
12360;BME280;6244;51.460;7.090;2024-02-21T13:33:19;100207.50;;;10.58;64.86
12360;BME280;6244;51.460;7.090;2024-02-21T13:38:15;100207.22;;;10.63;64.58
12360;BME280;6244;51.460;7.090;2024-02-21T13:43:15;100199.81;;;10.55;64.58
12360;BME280;6244;51.460;7.090;2024-02-21T13:48:11;100164.66;;;10.43;65.11
12360;BME280;6244;51.460;7.090;2024-02-21T13:53:10;100132.16;;;10.46;65.91
12360;BME280;6244;51.460;7.090;2024-02-21T13:58:06;100113.06;;;10.58;66.18
12360;BME280;6244;51.460;7.090;2024-02-21T14:03:05;100091.22;;;10.43;65.40
12360;BME280;6244;51.460;7.090;2024-02-21T14:08:02;100078.25;;;10.40;66.05
12360;BME280;6244;51.460;7.090;2024-02-21T14:13:00;100085.38;;;10.38;65.96
12360;BME280;6244;51.460;7.090;2024-02-21T14:17:56;100070.22;;;10.43;66.44
12360;BME280;6244;51.460;7.090;2024-02-21T14:22:54;100060.59;;;10.44;65.71
12360;BME280;6244;51.460;7.090;2024-02-21T14:27:51;100058.72;;;10.46;65.87
12360;BME280;6244;51.460;7.090;2024-02-21T14:32:47;100049.81;;;10.48;65.19
12360;BME280;6244;51.460;7.090;2024-02-21T14:37:44;100043.06;;;10.58;64.45
12360;BME280;6244;51.460;7.090;2024-02-21T14:42:42;100042.03;;;10.47;63.66
12360;BME280;6244;51.460;7.090;2024-02-21T14:47:38;100014.38;;;10.41;63.92
12360;BME280;6244;51.460;7.090;2024-02-21T14:52:35;99984.53;;;10.44;63.72
12360;BME280;6244;51.460;7.090;2024-02-21T14:57:32;99984.53;;;10.44;65.01
12360;BME280;6244;51.460;7.090;2024-02-21T15:02:29;99961.00;;;10.42;64.33
12360;BME280;6244;51.460;7.090;2024-02-21T15:07:26;99946.38;;;10.38;64.58
12360;BME280;6244;51.460;7.090;2024-02-21T15:12:22;99942.28;;;10.34;64.74
12360;BME280;6244;51.460;7.090;2024-02-21T15:17:19;99913.72;;;10.29;64.83
12360;BME280;6244;51.460;7.090;2024-02-21T15:22:17;99906.59;;;10.32;64.67
12360;BME280;6244;51.460;7.090;2024-02-21T15:27:15;99899.94;;;10.26;65.62
12360;BME280;6244;51.460;7.090;2024-02-21T15:32:12;99877.38;;;10.23;65.83
12360;BME280;6244;51.460;7.090;2024-02-21T15:37:08;99875.84;;;10.19;65.69
12360;BME280;6244;51.460;7.090;2024-02-21T15:42:07;99862.38;;;10.11;65.83
12360;BME280;6244;51.460;7.090;2024-02-21T15:47:04;99848.41;;;10.11;65.64
12360;BME280;6244;51.460;7.090;2024-02-21T15:52:01;99845.06;;;10.09;66.17
12360;BME280;6244;51.460;7.090;2024-02-21T15:56:57;99832.06;;;10.07;66.01
12360;BME280;6244;51.460;7.090;2024-02-21T16:01:55;99835.72;;;10.05;66.66
12360;BME280;6244;51.460;7.090;2024-02-21T16:06:52;99830.47;;;10.05;65.92
12360;BME280;6244;51.460;7.090;2024-02-21T16:11:48;99814.06;;;10.01;66.08
12360;BME280;6244;51.460;7.090;2024-02-21T16:16:45;99801.91;;;10.00;65.98
12360;BME280;6244;51.460;7.090;2024-02-21T16:21:43;99795.06;;;9.97;65.78
12360;BME280;6244;51.460;7.090;2024-02-21T16:26:40;99796.66;;;10.00;65.34
12360;BME280;6244;51.460;7.090;2024-02-21T16:31:37;99799.19;;;9.87;68.27
12360;BME280;6244;51.460;7.090;2024-02-21T16:36:34;99790.88;;;9.66;69.04
12360;BME280;6244;51.460;7.090;2024-02-21T16:41:32;99791.34;;;9.45;70.85
12360;BME280;6244;51.460;7.090;2024-02-21T16:46:28;99783.75;;;9.26;71.49
12360;BME280;6244;51.460;7.090;2024-02-21T16:51:25;99779.59;;;9.07;73.41
12360;BME280;6244;51.460;7.090;2024-02-21T16:56:21;99797.03;;;8.93;77.18
12360;BME280;6244;51.460;7.090;2024-02-21T17:01:19;99745.41;;;8.50;81.87
12360;BME280;6244;51.460;7.090;2024-02-21T17:06:16;99749.13;;;8.31;87.01
12360;BME280;6244;51.460;7.090;2024-02-21T17:11:12;99742.97;;;8.16;91.03
12360;BME280;6244;51.460;7.090;2024-02-21T17:16:09;99722.28;;;7.97;92.61
12360;BME280;6244;51.460;7.090;2024-02-21T17:21:07;99712.31;;;7.88;94.13
12360;BME280;6244;51.460;7.090;2024-02-21T17:26:05;99705.91;;;7.78;96.02
12360;BME280;6244;51.460;7.090;2024-02-21T17:31:02;99696.84;;;7.69;96.10
12360;BME280;6244;51.460;7.090;2024-02-21T17:35:58;99672.91;;;7.61;97.66
12360;BME280;6244;51.460;7.090;2024-02-21T17:40:56;99654.19;;;7.53;97.58
12360;BME280;6244;51.460;7.090;2024-02-21T17:45:53;99631.78;;;7.49;98.74
12360;BME280;6244;51.460;7.090;2024-02-21T17:50:51;99617.47;;;7.40;99.71
12360;BME280;6244;51.460;7.090;2024-02-21T17:55:48;99614.59;;;7.29;99.54
12360;BME280;6244;51.460;7.090;2024-02-21T18:00:46;99616.28;;;7.14;100.00
12360;BME280;6244;51.460;7.090;2024-02-21T18:05:42;99598.50;;;7.05;100.00
12360;BME280;6244;51.460;7.090;2024-02-21T18:10:39;99600.25;;;7.04;100.00
12360;BME280;6244;51.460;7.090;2024-02-21T18:15:36;99588.31;;;7.00;100.00
12360;BME280;6244;51.460;7.090;2024-02-21T18:20:34;99588.41;;;6.99;100.00
12360;BME280;6244;51.460;7.090;2024-02-21T18:25:31;99565.06;;;6.80;100.00
12360;BME280;6244;51.460;7.090;2024-02-21T18:30:28;99565.91;;;6.81;100.00
12360;BME280;6244;51.460;7.090;2024-02-21T18:35:24;99567.34;;;6.70;100.00
12360;BME280;6244;51.460;7.090;2024-02-21T18:40:22;99568.59;;;6.79;100.00
12360;BME280;6244;51.460;7.090;2024-02-21T18:45:19;99548.25;;;6.70;100.00
12360;BME280;6244;51.460;7.090;2024-02-21T18:50:15;99545.28;;;6.76;100.00
12360;BME280;6244;51.460;7.090;2024-02-21T18:55:12;99540.00;;;6.77;100.00
12360;BME280;6244;51.460;7.090;2024-02-21T19:00:13;99534.88;;;6.76;100.00
12360;BME280;6244;51.460;7.090;2024-02-21T19:05:12;99532.25;;;6.76;100.00
12360;BME280;6244;51.460;7.090;2024-02-21T19:10:09;99529.75;;;6.74;100.00
12360;BME280;6244;51.460;7.090;2024-02-21T19:15:07;99530.41;;;6.78;100.00
12360;BME280;6244;51.460;7.090;2024-02-21T19:20:07;99508.13;;;6.72;100.00
12360;BME280;6244;51.460;7.090;2024-02-21T19:25:07;99493.59;;;6.84;100.00
12360;BME280;6244;51.460;7.090;2024-02-21T19:30:09;99476.75;;;6.90;100.00
12360;BME280;6244;51.460;7.090;2024-02-21T19:35:08;99460.09;;;6.76;100.00
12360;BME280;6244;51.460;7.090;2024-02-21T19:40:07;99431.41;;;6.92;100.00
12360;BME280;6244;51.460;7.090;2024-02-21T19:45:05;99433.09;;;6.77;100.00
12360;BME280;6244;51.460;7.090;2024-02-21T19:50:01;99427.31;;;6.88;100.00
12360;BME280;6244;51.460;7.090;2024-02-21T19:54:59;99422.69;;;6.77;100.00
12360;BME280;6244;51.460;7.090;2024-02-21T19:59:56;99402.09;;;6.73;100.00
12360;BME280;6244;51.460;7.090;2024-02-21T20:04:53;99402.41;;;6.67;100.00
12360;BME280;6244;51.460;7.090;2024-02-21T20:09:50;99390.91;;;6.71;100.00
12360;BME280;6244;51.460;7.090;2024-02-21T20:14:48;99386.25;;;6.76;100.00
12360;BME280;6244;51.460;7.090;2024-02-21T20:19:44;99381.72;;;6.80;100.00
12360;BME280;6244;51.460;7.090;2024-02-21T20:24:41;99372.56;;;6.72;100.00
12360;BME280;6244;51.460;7.090;2024-02-21T20:29:38;99366.25;;;6.76;100.00
12360;BME280;6244;51.460;7.090;2024-02-21T20:34:36;99373.13;;;6.77;100.00
12360;BME280;6244;51.460;7.090;2024-02-21T20:39:32;99350.28;;;6.83;100.00
12360;BME280;6244;51.460;7.090;2024-02-21T20:44:29;99326.34;;;6.90;100.00
12360;BME280;6244;51.460;7.090;2024-02-21T20:49:25;99319.66;;;6.86;100.00
12360;BME280;6244;51.460;7.090;2024-02-21T20:54:23;99294.53;;;6.99;100.00
12360;BME280;6244;51.460;7.090;2024-02-21T20:59:20;99282.97;;;6.89;100.00
12360;BME280;6244;51.460;7.090;2024-02-21T21:04:18;99276.38;;;6.98;100.00
12360;BME280;6244;51.460;7.090;2024-02-21T21:09:16;99255.69;;;6.95;100.00
12360;BME280;6244;51.460;7.090;2024-02-21T21:14:15;99258.03;;;6.99;100.00
12360;BME280;6244;51.460;7.090;2024-02-21T21:19:11;99255.97;;;7.04;100.00
12360;BME280;6244;51.460;7.090;2024-02-21T21:24:08;99244.34;;;6.96;100.00
12360;BME280;6244;51.460;7.090;2024-02-21T21:29:04;99250.13;;;7.01;100.00
12360;BME280;6244;51.460;7.090;2024-02-21T21:34:02;99238.28;;;6.95;100.00
12360;BME280;6244;51.460;7.090;2024-02-21T21:38:59;99228.31;;;7.02;100.00
12360;BME280;6244;51.460;7.090;2024-02-21T21:43:55;99233.34;;;7.05;100.00
12360;BME280;6244;51.460;7.090;2024-02-21T21:48:52;99220.22;;;7.06;100.00
12360;BME280;6244;51.460;7.090;2024-02-21T21:53:50;99211.53;;;7.06;100.00
12360;BME280;6244;51.460;7.090;2024-02-21T21:58:46;99201.50;;;7.00;100.00
12360;BME280;6244;51.460;7.090;2024-02-21T22:03:44;99200.38;;;7.04;100.00
12360;BME280;6244;51.460;7.090;2024-02-21T22:08:41;99190.13;;;7.01;100.00
12360;BME280;6244;51.460;7.090;2024-02-21T22:13:39;99182.03;;;7.05;100.00
12360;BME280;6244;51.460;7.090;2024-02-21T22:18:36;99176.06;;;7.03;100.00
12360;BME280;6244;51.460;7.090;2024-02-21T22:23:32;99163.03;;;7.03;100.00
12360;BME280;6244;51.460;7.090;2024-02-21T22:28:28;99169.16;;;7.02;100.00
12360;BME280;6244;51.460;7.090;2024-02-21T22:33:26;99149.97;;;7.03;100.00
12360;BME280;6244;51.460;7.090;2024-02-21T22:38:23;99138.44;;;7.07;100.00
12360;BME280;6244;51.460;7.090;2024-02-21T22:43:19;99137.53;;;7.09;100.00
12360;BME280;6244;51.460;7.090;2024-02-21T22:48:16;99121.78;;;7.10;100.00
12360;BME280;6244;51.460;7.090;2024-02-21T22:53:14;99123.25;;;7.14;100.00
12360;BME280;6244;51.460;7.090;2024-02-21T22:58:10;99117.00;;;7.17;100.00
12360;BME280;6244;51.460;7.090;2024-02-21T23:03:07;99091.84;;;7.16;100.00
12360;BME280;6244;51.460;7.090;2024-02-21T23:08:04;99087.66;;;7.13;100.00
12360;BME280;6244;51.460;7.090;2024-02-21T23:13:02;99070.88;;;7.17;100.00
12360;BME280;6244;51.460;7.090;2024-02-21T23:17:59;99068.09;;;7.20;100.00
12360;BME280;6244;51.460;7.090;2024-02-21T23:22:56;99049.91;;;7.19;100.00
12360;BME280;6244;51.460;7.090;2024-02-21T23:27:52;99060.06;;;7.23;100.00
12360;BME280;6244;51.460;7.090;2024-02-21T23:32:50;99040.88;;;7.24;100.00
12360;BME280;6244;51.460;7.090;2024-02-21T23:37:46;99020.13;;;7.23;100.00
12360;BME280;6244;51.460;7.090;2024-02-21T23:42:43;99023.06;;;7.31;100.00
12360;BME280;6244;51.460;7.090;2024-02-21T23:47:40;99022.97;;;7.32;100.00
12360;BME280;6244;51.460;7.090;2024-02-21T23:52:38;99013.44;;;7.31;100.00
12360;BME280;6244;51.460;7.090;2024-02-21T23:57:35;99008.91;;;7.35;100.00
